Data for 01/13/2005

Time Sea-Level Adjusted Pressure Absolute Pressure Temperature Relative Humidity Dew Point   
(mb) (inHg) (mb) (inHg) (C) (F) (%) (C) (F)
00:05 1010 29.83 839 24.78 -8.9 16 66 -14.2 6.4
00:10 1010 29.83 839 24.78 -9.5 15 67 -14.6 5.7
00:15 1010 29.83 839 24.78 -9.9 14.1 68 -14.8 5.3
00:20 1010 29.83 839 24.78 -10.4 13.3 69 -15.1 4.8
00:25 1010 29.83 839 24.78 -10.8 12.5 69 -15.4 4.3
00:30 1010 29.83 839 24.78 -11.4 11.6 70 -15.8 3.6
00:35 1010 29.83 839 24.78 -11.8 10.8 72 -15.9 3.4
00:40 1010 29.83 839 24.78 -12.2 10.1 72 -16.3 2.7
00:45 1010 29.83 839 24.78 -12.5 9.5 72 -16.6 2.1
00:50 1010 29.83 839 24.78 -13 8.7 73 -16.9 1.6
00:55 1010 29.83 839 24.78 -13.4 7.8 74 -17.2 1.1
01:00 1010 29.83 839 24.78 -13.7 7.4 74 -17.3 0.8
01:05 1010 29.83 839 24.78 -13.8 7.2 74 -17.5 0.5
01:10 1010 29.83 839 24.78 -13.9 7 74 -17.5 0.5
01:15 1010 29.83 840 24.81 -14.1 6.6 75 -17.5 0.4
01:20 1011 29.85 840 24.81 -14.3 6.2 76 -17.7 0.2
01:25 1010 29.83 840 24.81 -14.6 5.8 76 -17.9 -0.2
01:30 1010 29.83 840 24.81 -14.7 5.6 76 -18 -0.4
01:35 1010 29.83 840 24.81 -15 5.1 78 -18 -0.4
01:40 1010 29.83 840 24.81 -14.7 5.5 77 -18 -0.3
01:45 1010 29.83 840 24.81 -14.8 5.4 77 -18 -0.4
01:50 1011 29.85 840 24.81 -14.7 5.5 77 -17.9 -0.2
01:55 1011 29.85 840 24.81 -14.5 5.8 75 -18 -0.4
02:00 1011 29.85 840 24.81 -14.5 6 74 -18.1 -0.6
02:05 1011 29.85 840 24.81 -14.5 5.8 75 -18.1 -0.5
02:10 1011 29.85 840 24.81 -14.7 5.5 76 -18 -0.4
02:15 1011 29.85 840 24.81 -14.8 5.3 76 -18.2 -0.7
02:20 1011 29.85 840 24.81 -15.2 4.7 78 -18.2 -0.8
02:25 1011 29.85 840 24.81 -15.5 4.1 78 -18.6 -1.4
02:30 1011 29.85 840 24.81 -15.5 4.2 78 -18.5 -1.2
02:35 1011 29.85 840 24.81 -15.2 4.7 77 -18.4 -1.1
02:40 1011 29.85 840 24.81 -14.8 5.3 75 -18.3 -0.9
02:45 1011 29.85 840 24.81 -14.6 5.8 75 -18.1 -0.6
02:50 1011 29.85 840 24.81 -14.5 5.9 74 -18.2 -0.7
02:55 1011 29.85 840 24.81 -14.9 5.2 75 -18.3 -1
03:00 1011 29.85 840 24.81 -15 5 77 -18.2 -0.8
03:05 1011 29.85 841 24.83 -14.7 5.5 75 -18.2 -0.8
03:10 1011 29.85 840 24.81 -14.8 5.3 74 -18.5 -1.3
03:15 1011 29.85 840 24.81 -14.8 5.3 73 -18.6 -1.5
03:20 1011 29.85 840 24.81 -15.2 4.7 77 -18.4 -1.1
03:25 1011 29.85 840 24.81 -15.4 4.3 79 -18.2 -0.8
03:30 1011 29.85 840 24.81 -15.4 4.2 79 -18.3 -1
03:35 1011 29.85 840 24.81 -15.4 4.2 79 -18.2 -0.8
03:40 1011 29.85 840 24.81 -15.3 4.5 79 -18.1 -0.6
03:45 1011 29.85 840 24.81 -15.1 4.7 80 -17.9 -0.3
03:50 1011 29.85 840 24.81 -14.6 5.8 77 -17.8 -0
03:55 1011 29.85 841 24.83 -14.3 6.3 75 -17.8 -0.1
04:00 1011 29.85 841 24.83 -14.7 5.5 77 -17.9 -0.3
04:05 1011 29.85 841 24.83 -15.1 4.8 76 -18.4 -1.2
04:10 1011 29.85 840 24.81 -15.8 3.6 79 -18.6 -1.5
04:15 1011 29.85 840 24.81 -16 3.3 80 -18.7 -1.6
04:20 1011 29.85 840 24.81 -16.1 2.9 80 -18.8 -1.9
04:25 1011 29.85 841 24.83 -16.1 3.1 81 -18.7 -1.6
04:30 1012 29.88 841 24.83 -15.9 3.3 80 -18.6 -1.5
04:35 1012 29.88 841 24.83 -16 3.3 78 -19 -2.2
04:40 1012 29.88 841 24.83 -16.5 2.4 79 -19.4 -2.8
04:45 1012 29.88 841 24.83 -16.8 1.9 79 -19.5 -3.2
04:50 1012 29.88 841 24.83 -17 1.3 80 -19.7 -3.4
04:55 1012 29.88 842 24.86 -17 1.3 79 -19.8 -3.6
05:00 1012 29.88 841 24.83 -17.2 1 80 -19.9 -3.8
05:05 1012 29.88 841 24.83 -17.5 0.6 80 -20.2 -4.3
05:10 1012 29.88 841 24.83 -17.7 0.1 81 -20.3 -4.5
05:15 1012 29.88 841 24.83 -17.8 -0.1 82 -20.1 -4.2
05:20 1012 29.88 841 24.83 -17.8 -0 83 -20 -4
05:25 1012 29.88 841 24.83 -17.6 0.4 83 -19.8 -3.7
05:30 1012 29.88 841 24.83 -17.6 0.4 84 -19.6 -3.3
05:35 1012 29.88 841 24.83 -17.6 0.4 83 -19.8 -3.6
05:40 1012 29.88 841 24.83 -17.4 0.7 82 -19.7 -3.5
05:45 1012 29.88 841 24.83 -17.3 0.9 84 -19.4 -2.9
05:50 1012 29.88 841 24.83 -17.1 1.3 81 -19.5 -3.2
05:55 1012 29.88 841 24.83 -17.1 1.2 83 -19.3 -2.8
06:00 1012 29.88 841 24.83 -17 1.4 82 -19.3 -2.8
06:05 1012 29.88 841 24.83 -16.8 1.8 82 -19.2 -2.5
06:10 1012 29.88 842 24.86 -16.7 2 80 -19.3 -2.8
06:15 1013 29.91 842 24.86 -16.8 1.7 80 -19.6 -3.2
06:20 1013 29.91 842 24.86 -17.2 1 81 -19.8 -3.6
06:25 1013 29.91 842 24.86 -17.9 -0.2 81 -20.4 -4.7
06:30 1013 29.91 842 24.86 -18.2 -0.8 81 -20.7 -5.3
06:35 1013 29.91 842 24.86 -18.7 -1.6 83 -20.9 -5.7
06:40 1013 29.91 843 24.89 -18.9 -1.9 83 -21.1 -5.9
06:45 1014 29.94 843 24.89 -18.8 -1.9 83 -21.1 -5.9
06:50 1014 29.94 843 24.89 -18.8 -1.8 82 -21.1 -6.1
06:55 1014 29.94 843 24.89 -19 -2.3 81 -21.6 -6.9
07:00 1014 29.94 843 24.89 -19 -2.2 83 -21.2 -6.1
07:05 1014 29.94 843 24.89 -18.8 -1.8 80 -21.5 -6.7
07:10 1014 29.94 843 24.89 -18.9 -2.1 82 -21.3 -6.3
07:15 1014 29.94 843 24.89 -18.9 -2.1 81 -21.5 -6.7
07:20 1013 29.91 842 24.86 -19.2 -2.6 84 -21.3 -6.3
07:25 1013 29.91 843 24.89 -19.2 -2.5 82 -21.5 -6.6
07:30 1013 29.91 843 24.89 -19.1 -2.4 83 -21.3 -6.4
07:35 1014 29.94 843 24.89 -19 -2.2 84 -21.1 -5.9
07:40 1014 29.94 843 24.89 -18.5 -1.4 84 -20.7 -5.2
07:45 1014 29.94 843 24.89 -18 -0.5 82 -20.4 -4.8
07:50 1014 29.94 843 24.89 -17.9 -0.3 81 -20.5 -4.9
07:55 1014 29.94 843 24.89 -17.9 -0.3 80 -20.5 -5
08:00 1014 29.94 843 24.89 -18.1 -0.5 80 -20.7 -5.3
08:05 1014 29.94 844 24.92 -18.2 -0.7 80 -20.8 -5.4
08:10 1014 29.94 844 24.92 -18.3 -0.9 81 -20.7 -5.3
08:15 1014 29.94 844 24.92 -18.3 -0.9 82 -20.7 -5.2
08:20 1014 29.94 844 24.92 -18 -0.4 82 -20.3 -4.6
08:25 1015 29.97 844 24.92 -17.9 -0.2 82 -20.3 -4.5
08:30 1014 29.94 844 24.92 -17.8 0 81 -20.2 -4.4
08:35 1015 29.97 844 24.92 -17.7 0.1 80 -20.4 -4.7
08:40 1015 29.97 844 24.92 -17.8 -0 81 -20.3 -4.5
08:45 1015 29.97 844 24.92 -17.7 0.2 81 -20.2 -4.3
08:50 1015 29.97 844 24.92 -17.4 0.8 80 -20.1 -4.1
08:55 1015 29.97 844 24.92 -17.3 0.8 80 -19.9 -3.9
09:00 1015 29.97 844 24.92 -17.4 0.7 80 -20.1 -4.2
09:05 1015 29.97 844 24.92 -17.9 -0.3 81 -20.5 -4.8
09:10 1015 29.97 845 24.95 -17.8 -0.1 80 -20.5 -4.9
09:15 1015 29.97 845 24.95 -18.4 -1 80 -21 -5.9
09:20 1015 29.97 845 24.95 -18.8 -1.9 83 -21.1 -6
09:25 1015 29.97 845 24.95 -18.2 -0.8 80 -20.8 -5.5
09:30 1015 29.97 845 24.95 -18 -0.4 79 -20.8 -5.4
09:35 1016 30 845 24.95 -18 -0.4 77 -21.1 -5.9
09:40 1016 30 845 24.95 -18.4 -1 82 -20.7 -5.2
09:45 1016 30 845 24.95 -18 -0.3 78 -20.9 -5.6
09:50 1015 29.97 845 24.95 -18.3 -1 80 -21 -5.9
09:55 1015 29.97 845 24.95 -18.3 -1 81 -20.8 -5.4
10:00 1016 30 845 24.95 -17.8 -0.1 81 -20.4 -4.7
10:05 1016 30 845 24.95 -17.6 0.3 80 -20.3 -4.6
10:10 1016 30 845 24.95 -17.5 0.5 78 -20.4 -4.7
10:15 1016 30 845 24.95 -17.5 0.5 77 -20.5 -5
10:20 1016 30 845 24.95 -17.7 0.2 80 -20.4 -4.7
10:25 1016 30 845 24.95 -17.7 0.1 79 -20.5 -4.9
10:30 1016 30 845 24.95 -17.9 -0.3 81 -20.4 -4.8
10:35 1016 30 846 24.98 -18 -0.4 78 -20.9 -5.6
10:40 1016 30 846 24.98 -18.2 -0.8 78 -21.2 -6.2
10:45 1016 30 845 24.95 -18.5 -1.3 82 -20.9 -5.6
10:50 1016 30 845 24.95 -18.5 -1.3 81 -21 -5.8
10:55 1016 30 845 24.95 -18.6 -1.6 82 -21 -5.9
11:00 1016 30 845 24.95 -18.3 -1 81 -20.9 -5.5
11:05 1016 30 845 24.95 -17.7 0.2 80 -20.4 -4.7
11:10 1016 30 845 24.95 -17.4 0.7 81 -19.9 -3.9
11:15 1016 30 845 24.95 -17.4 0.7 79 -20.3 -4.5
11:20 1016 30 845 24.95 -17.8 -0 81 -20.3 -4.5
11:25 1016 30 845 24.95 -17.5 0.4 77 -20.6 -5.1
11:30 1016 30 845 24.95 -17.6 0.4 77 -20.6 -5.1
11:35 1016 30 845 24.95 -17.2 1.1 76 -20.5 -4.8
11:40 1016 30 845 24.95 -17.2 1 78 -20.2 -4.3
11:45 1016 30 845 24.95 -17.2 1 78 -20.3 -4.5
11:50 1016 30 845 24.95 -16.7 1.9 78 -19.7 -3.5
11:55 1016 30 845 24.95 -15.7 3.8 73 -19.5 -3
12:00 1016 30 845 24.95 -15.2 4.6 71 -19.3 -2.8
12:05 1016 30 845 24.95 -15.2 4.6 71 -19.4 -2.9
12:10 1016 30 845 24.95 -15.4 4.2 72 -19.4 -2.9
12:15 1016 30 845 24.95 -16 3.2 72 -19.9 -3.8
12:20 1016 30 845 24.95 -17.1 1.2 76 -20.4 -4.8
12:25 1015 29.97 845 24.95 -17.2 1.1 76 -20.4 -4.7
12:30 1015 29.97 845 24.95 -16.9 1.7 79 -19.6 -3.3
12:35 1015 29.97 845 24.95 -16 3.3 72 -19.9 -3.8
12:40 1015 29.97 844 24.92 -15.7 3.8 70 -20 -4
12:45 1015 29.97 844 24.92 -15.5 4.1 72 -19.5 -3
12:50 1015 29.97 844 24.92 -14.8 5.3 69 -19.4 -2.8
12:55 1015 29.97 844 24.92 -15.1 4.8 70 -19.5 -3
13:00 1015 29.97 844 24.92 -15.1 4.8 70 -19.4 -2.9
13:05 1015 29.97 844 24.92 -15.9 3.3 75 -19.5 -3
13:10 1015 29.97 844 24.92 -15.8 3.5 74 -19.4 -2.9
13:15 1015 29.97 844 24.92 -15.8 3.6 73 -19.6 -3.3
13:20 1015 29.97 844 24.92 -15.7 3.7 73 -19.5 -3.2
13:25 1015 29.97 844 24.92 -15.9 3.4 73 -19.7 -3.5
13:30 1015 29.97 844 24.92 -16.3 2.7 75 -19.7 -3.4
13:35 1015 29.97 844 24.92 -16.1 3.1 75 -19.6 -3.2
13:40 1015 29.97 844 24.92 -16.2 2.9 74 -19.9 -3.8
13:45 1015 29.97 844 24.92 -16.5 2.4 75 -19.9 -3.9
13:50 1015 29.97 844 24.92 -16.2 2.8 72 -20.1 -4.2
13:55 1015 29.97 844 24.92 -16.4 2.4 73 -20.2 -4.3
14:00 1015 29.97 844 24.92 -16.9 1.7 77 -20.1 -4.1
14:05 1015 29.97 844 24.92 -17.2 1 79 -20.1 -4.2
14:10 1015 29.97 844 24.92 -17 1.4 77 -20.1 -4.2
14:15 1015 29.97 844 24.92 -16.9 1.6 77 -20.1 -4.1
14:20 1015 29.97 844 24.92 -16.7 2 75 -20.2 -4.3
14:25 1015 29.97 844 24.92 -16.7 2 75 -20.1 -4.1
14:30 1015 29.97 844 24.92 -16.5 2.2 74 -20.2 -4.4
14:35 1015 29.97 844 24.92 -17.4 0.7 79 -20.3 -4.5
14:40 1015 29.97 844 24.92 -17.1 1.2 77 -20.3 -4.6
14:45 1015 29.97 845 24.95 -16.7 2 76 -20 -4
14:50 1016 30 845 24.95 -16.4 2.4 75 -19.8 -3.7
14:55 1015 29.97 845 24.95 -16.4 2.6 75 -19.8 -3.7
15:00 1016 30 845 24.95 -16.5 2.3 77 -19.7 -3.5
15:05 1016 30 845 24.95 -16.4 2.5 76 -19.7 -3.4
15:10 1016 30 845 24.95 -16.2 2.9 75 -19.7 -3.4
15:15 1016 30 845 24.95 -16 3.2 75 -19.5 -3.1
15:20 1016 30 845 24.95 -16.1 3 74 -19.7 -3.5
15:25 1016 30 845 24.95 -16.5 2.3 77 -19.6 -3.3
15:30 1016 30 845 24.95 -16.8 1.8 77 -20 -4
15:35 1016 30 845 24.95 -17 1.5 77 -20.1 -4.3
15:40 1016 30 845 24.95 -16.9 1.6 79 -19.7 -3.4
15:45 1016 30 845 24.95 -16.5 2.3 78 -19.5 -3.1
15:50 1016 30 845 24.95 -17 1.4 80 -19.6 -3.3
15:55 1016 30 845 24.95 -17 1.4 80 -19.6 -3.4
16:00 1016 30 845 24.95 -16.8 1.8 77 -19.9 -3.9
16:05 1016 30 845 24.95 -17 1.5 78 -19.9 -3.8
16:10 1016 30 845 24.95 -16.9 1.6 80 -19.6 -3.2
16:15 1016 30 845 24.95 -16.8 1.8 78 -19.7 -3.5
16:20 1016 30 845 24.95 -17.3 0.8 81 -19.8 -3.7
16:25 1016 30 845 24.95 -17.4 0.8 80 -20 -4
16:30 1016 30 845 24.95 -17 1.4 79 -19.8 -3.6
16:35 1016 30 845 24.95 -17 1.5 79 -19.9 -3.7
16:40 1016 30 845 24.95 -17.1 1.2 80 -19.8 -3.7
16:45 1016 30 846 24.98 -17.5 0.6 83 -19.7 -3.4
16:50 1016 30 846 24.98 -17.1 1.1 80 -19.8 -3.6
16:55 1016 30 846 24.98 -17.1 1.1 81 -19.7 -3.5
17:00 1016 30 846 24.98 -17.2 1 82 -19.7 -3.4
17:05 1017 30.03 846 24.98 -17.1 1.3 81 -19.5 -3.2
17:10 1017 30.03 846 24.98 -17 1.4 82 -19.3 -2.8
17:15 1017 30.03 846 24.98 -17.1 1.2 83 -19.3 -2.8
17:20 1017 30.03 846 24.98 -17.2 1 81 -19.7 -3.5
17:25 1017 30.03 846 24.98 -17.4 0.6 83 -19.6 -3.3
17:30 1017 30.03 846 24.98 -17.3 0.9 83 -19.5 -3.1
17:35 1017 30.03 846 24.98 -17.2 1.1 83 -19.4 -2.9
17:40 1017 30.03 846 24.98 -17.2 1.1 83 -19.4 -2.9
17:45 1017 30.03 846 24.98 -17.5 0.5 83 -19.7 -3.5
17:50 1017 30.03 846 24.98 -17.7 0.2 84 -19.8 -3.6
17:55 1017 30.03 846 24.98 -17.7 0.1 84 -19.8 -3.6
18:00 1017 30.03 846 24.98 -17.6 0.3 85 -19.5 -3.1
18:05 1017 30.03 846 24.98 -17.3 0.9 84 -19.4 -2.9
18:10 1017 30.03 846 24.98 -17.2 1 83 -19.5 -3
18:15 1017 30.03 846 24.98 -17.3 0.8 83 -19.5 -3.2
18:20 1017 30.03 846 24.98 -17.4 0.7 85 -19.3 -2.8
18:25 1017 30.03 846 24.98 -17.4 0.7 83 -19.6 -3.3
18:30 1017 30.03 846 24.98 -17.6 0.3 83 -19.8 -3.6
18:35 1017 30.03 846 24.98 -17.6 0.3 83 -19.8 -3.7
18:40 1017 30.03 846 24.98 -17.9 -0.1 84 -19.9 -3.8
18:45 1017 30.03 846 24.98 -17.8 0 84 -19.8 -3.7
18:50 1017 30.03 846 24.98 -17.8 -0 84 -19.8 -3.7
18:55 1017 30.03 846 24.98 -17.8 -0.1 85 -19.8 -3.7
19:00 1017 30.03 846 24.98 -17.9 -0.1 85 -19.9 -3.8
19:05 1017 30.03 846 24.98 -18 -0.4 85 -19.9 -3.8
19:10 1017 30.03 846 24.98 -17.9 -0.2 85 -19.9 -3.8
19:15 1017 30.03 846 24.98 -17.9 -0.2 86 -19.8 -3.6
19:20 1017 30.03 846 24.98 -17.8 -0.1 86 -19.7 -3.4
19:25 1017 30.03 846 24.98 -17.7 0.1 85 -19.7 -3.4
19:30 1017 30.03 846 24.98 -17.7 0.1 84 -19.9 -3.7
19:35 1017 30.03 846 24.98 -17.8 -0.1 84 -19.8 -3.7
19:40 1017 30.03 846 24.98 -17.8 -0 85 -19.8 -3.6
19:45 1017 30.03 846 24.98 -17.7 0.1 85 -19.6 -3.3
19:50 1017 30.03 846 24.98 -17.6 0.3 85 -19.5 -3.1
19:55 1017 30.03 846 24.98 -17.3 0.8 85 -19.3 -2.7
20:00 1017 30.03 846 24.98 -17.1 1.2 85 -19.1 -2.4
20:05 1017 30.03 846 24.98 -17.1 1.2 84 -19.3 -2.7
20:10 1017 30.03 846 24.98 -17.3 0.9 83 -19.4 -3
20:15 1017 30.03 846 24.98 -17.4 0.8 84 -19.5 -3
20:20 1017 30.03 846 24.98 -17.5 0.5 84 -19.6 -3.2
20:25 1017 30.03 846 24.98 -17.4 0.7 83 -19.6 -3.3
20:30 1017 30.03 846 24.98 -17.6 0.2 85 -19.6 -3.3
20:35 1017 30.03 846 24.98 -18.1 -0.6 86 -19.9 -3.9
20:40 1017 30.03 846 24.98 -18.1 -0.6 86 -19.8 -3.7
20:45 1017 30.03 846 24.98 -17.9 -0.2 87 -19.5 -3.2
20:50 1017 30.03 846 24.98 -17.7 0.1 86 -19.6 -3.3
20:55 1017 30.03 846 24.98 -17.6 0.3 86 -19.5 -3
21:00 1017 30.03 846 24.98 -17.5 0.6 85 -19.4 -2.9
21:05 1017 30.03 846 24.98 -17.5 0.5 84 -19.6 -3.2
21:10 1017 30.03 846 24.98 -17.6 0.3 85 -19.6 -3.3
21:15 1017 30.03 846 24.98 -17.6 0.3 85 -19.5 -3.2
21:20 1017 30.03 846 24.98 -17.5 0.5 85 -19.5 -3.1
21:25 1017 30.03 846 24.98 -17.6 0.3 85 -19.6 -3.2
21:30 1017 30.03 846 24.98 -17.5 0.5 84 -19.6 -3.2
21:35 1017 30.03 846 24.98 -17.6 0.2 84 -19.7 -3.4
21:40 1017 30.03 847 25.01 -17.6 0.3 85 -19.6 -3.2
21:45 1017 30.03 847 25.01 -17.4 0.7 83 -19.6 -3.3
21:50 1017 30.03 846 24.98 -17.8 0 85 -19.8 -3.6
21:55 1017 30.03 847 25.01 -17.9 -0.3 85 -19.9 -3.9
22:00 1017 30.03 847 25.01 -18 -0.3 86 -19.8 -3.6
22:05 1017 30.03 847 25.01 -17.8 -0.1 86 -19.6 -3.3
22:10 1017 30.03 847 25.01 -17.7 0.2 86 -19.5 -3.1
22:15 1017 30.03 847 25.01 -17.6 0.3 84 -19.7 -3.5
22:20 1017 30.03 847 25.01 -18 -0.4 85 -19.9 -3.8
22:25 1017 30.03 847 25.01 -18.2 -0.7 85 -20.1 -4.1
22:30 1017 30.03 847 25.01 -18.1 -0.6 87 -19.8 -3.7
22:35 1017 30.03 847 25.01 -18 -0.3 86 -19.8 -3.6
22:40 1017 30.03 847 25.01 -17.9 -0.2 85 -19.8 -3.6
22:45 1018 30.06 847 25.01 -17.7 0.1 83 -19.9 -3.9
22:50 1018 30.06 847 25.01 -17.9 -0.2 84 -20 -4
22:55 1018 30.06 847 25.01 -18.1 -0.5 84 -20.1 -4.2
23:00 1018 30.06 847 25.01 -18.1 -0.5 85 -20.1 -4.1
23:05 1018 30.06 847 25.01 -17.9 -0.3 85 -19.8 -3.7
23:10 1018 30.06 847 25.01 -17.7 0.2 84 -19.7 -3.4
23:15 1018 30.06 847 25.01 -17.4 0.6 83 -19.6 -3.3
23:20 1018 30.06 847 25.01 -17.4 0.6 83 -19.7 -3.5
23:25 1018 30.06 847 25.01 -17.8 -0 83 -20 -4.1
23:30 1018 30.06 847 25.01 -18 -0.3 84 -20 -4.1
23:35 1018 30.06 847 25.01 -17.9 -0.1 85 -19.8 -3.7
23:40 1018 30.06 847 25.01 -17.6 0.3 85 -19.6 -3.3
23:45 1018 30.06 847 25.01 -17.4 0.7 84 -19.5 -3.1
23:50 1018 30.06 847 25.01 -17.4 0.7 82 -19.7 -3.5
23:55 1018 30.06 847 25.01 -17.6 0.3 84 -19.7 -3.5
24:00 1018 30.06 847 25.01 -17.6 0.3 84 -19.7 -3.4